createdAt,value
2022-12-18T00:01:29.833Z,91.87
2022-12-18T00:03:58.118Z,93.04
2022-12-18T00:06:28.125Z,93.47
2022-12-18T00:08:58.554Z,92.22
2022-12-18T00:11:28.752Z,92.33
2022-12-18T00:13:58.661Z,92.31
2022-12-18T00:16:28.346Z,93.24
2022-12-18T00:18:58.297Z,93.85
2022-12-18T00:21:26.584Z,93.88
2022-12-18T00:23:54.718Z,93.82
2022-12-18T00:26:26.451Z,92.98
2022-12-18T00:29:01.160Z,93.73
2022-12-18T00:31:29.615Z,93.32
2022-12-18T00:33:58.155Z,92.54
2022-12-18T00:36:28.379Z,93.14
2022-12-18T00:38:57.224Z,92.77
2022-12-18T00:41:43.897Z,93.21
2022-12-18T00:44:13.270Z,93.69
2022-12-18T00:46:42.384Z,93.32
2022-12-18T00:49:10.314Z,92.99
2022-12-18T00:51:38.115Z,92.96
2022-12-18T00:54:06.338Z,93.17
2022-12-18T00:56:45.722Z,92.43
2022-12-18T00:59:16.855Z,93.48
2022-12-18T01:01:44.770Z,93.19
2022-12-18T01:04:12.739Z,93.55
2022-12-18T01:06:40.480Z,93.21
2022-12-18T01:09:08.239Z,93.66
2022-12-18T01:11:39.477Z,94.28
2022-12-18T01:14:07.657Z,93.92
2022-12-18T01:16:35.488Z,93.12
2022-12-18T01:19:06.017Z,93.71
2022-12-18T01:21:34.467Z,93.70
2022-12-18T01:24:06.013Z,94.42
2022-12-18T01:26:33.815Z,93.85
2022-12-18T01:29:03.076Z,94.90
2022-12-18T01:31:33.814Z,94.51
2022-12-18T01:34:04.226Z,94.53
2022-12-18T01:36:36.825Z,93.96
2022-12-18T01:39:07.477Z,93.67
2022-12-18T01:41:50.413Z,94.13
2022-12-18T01:44:54.395Z,93.94
2022-12-18T01:47:27.789Z,94.96
2022-12-18T01:49:57.764Z,94.93
2022-12-18T01:52:30.181Z,94.14
2022-12-18T01:54:58.785Z,94.91
2022-12-18T01:57:28.705Z,94.43
2022-12-18T02:00:01.117Z,94.26
2022-12-18T02:02:31.688Z,93.52
2022-12-18T02:05:01.268Z,94.14
2022-12-18T02:07:39.720Z,93.87
2022-12-18T02:10:15.920Z,94.27
2022-12-18T02:12:47.082Z,94.75
2022-12-18T02:15:18.549Z,94.09
2022-12-18T02:17:54.267Z,93.38
2022-12-18T02:20:27.377Z,92.97
2022-12-18T02:23:08.705Z,92.38
2022-12-18T02:26:01.127Z,92.97
2022-12-18T02:28:33.924Z,94.19
2022-12-18T02:31:09.972Z,93.49
2022-12-18T02:33:39.266Z,92.49
2022-12-18T02:36:08.673Z,92.88
2022-12-18T02:38:37.274Z,92.86
2022-12-18T02:41:15.043Z,92.47
2022-12-18T02:43:55.087Z,91.78
2022-12-18T02:46:32.957Z,92.05
2022-12-18T02:49:13.255Z,91.49
2022-12-18T02:51:50.873Z,91.61
2022-12-18T02:54:28.716Z,92.47
2022-12-18T02:57:05.901Z,92.37
2022-12-18T02:59:40.699Z,92.40
2022-12-18T03:02:19.515Z,92.72
2022-12-18T03:04:52.338Z,92.69
2022-12-18T03:07:36.105Z,92.04
2022-12-18T03:10:10.905Z,92.92
2022-12-18T03:12:45.350Z,92.38
2022-12-18T03:15:19.411Z,92.48
2022-12-18T03:17:55.093Z,92.27
2022-12-18T03:20:30.006Z,93.12
2022-12-18T03:23:04.804Z,93.28
2022-12-18T03:25:34.575Z,94.24
2022-12-18T03:28:05.223Z,93.85
2022-12-18T03:30:35.428Z,93.13
2022-12-18T03:33:07.949Z,93.78
2022-12-18T03:35:41.074Z,92.84
2022-12-18T03:38:09.871Z,92.77
2022-12-18T03:40:52.660Z,93.05
2022-12-18T03:43:33.418Z,91.73
2022-12-18T03:46:07.561Z,91.82
2022-12-18T03:48:41.527Z,91.54
2022-12-18T03:51:19.207Z,91.95
2022-12-18T03:53:51.962Z,92.27
2022-12-18T03:56:27.415Z,93.25
2022-12-18T03:58:58.663Z,92.04
2022-12-18T04:01:33.903Z,92.28
2022-12-18T04:04:03.346Z,92.11
2022-12-18T04:06:39.357Z,93.29
2022-12-18T04:09:07.626Z,92.55
2022-12-18T04:11:39.560Z,93.54
2022-12-18T04:14:11.969Z,93.61
2022-12-18T04:16:43.842Z,93.37
2022-12-18T04:19:15.082Z,94.17
2022-12-18T04:21:44.862Z,93.84
2022-12-18T04:24:14.957Z,93.37
2022-12-18T04:26:51.630Z,94.45
2022-12-18T04:29:26.123Z,94.18
2022-12-18T04:31:53.920Z,94.67
2022-12-18T04:34:22.827Z,94.22
2022-12-18T04:36:53.692Z,93.33
2022-12-18T04:39:23.012Z,94.50
2022-12-18T04:41:52.732Z,94.59
2022-12-18T04:44:20.496Z,93.17
2022-12-18T04:46:49.608Z,93.37
2022-12-18T04:49:17.448Z,93.31
2022-12-18T04:51:45.656Z,93.84
2022-12-18T04:54:13.407Z,93.77
2022-12-18T04:56:41.723Z,93.49
2022-12-18T04:59:09.492Z,93.03
2022-12-18T05:01:37.323Z,93.62
2022-12-18T05:04:06.604Z,93.40
2022-12-18T05:06:34.405Z,93.31
2022-12-18T05:09:02.094Z,93.89
2022-12-18T05:11:29.932Z,93.48
2022-12-18T05:14:00.721Z,94.05
2022-12-18T05:16:28.464Z,93.67
2022-12-18T05:18:56.252Z,93.09
2022-12-18T05:21:25.316Z,93.23
2022-12-18T05:23:53.116Z,93.71
2022-12-18T05:26:20.896Z,94.28
2022-12-18T05:28:48.667Z,92.90
2022-12-18T05:31:16.732Z,93.06
2022-12-18T05:33:44.632Z,92.53
2022-12-18T05:36:12.730Z,92.24
2022-12-18T05:38:42.672Z,92.45
2022-12-18T05:41:10.990Z,91.30
2022-12-18T05:43:40.487Z,92.71
2022-12-18T05:46:10.058Z,91.93
2022-12-18T05:48:37.854Z,91.40
2022-12-18T05:51:08.053Z,91.89
2022-12-18T05:53:37.090Z,92.52
2022-12-18T05:56:08.992Z,93.03
2022-12-18T05:58:37.660Z,93.49
2022-12-18T06:01:10.424Z,93.46
2022-12-18T06:03:38.790Z,92.90
2022-12-18T06:06:14.287Z,92.76
2022-12-18T06:08:46.242Z,92.08
2022-12-18T06:11:19.510Z,93.03
2022-12-18T06:13:47.523Z,92.68
2022-12-18T06:16:15.452Z,92.55
2022-12-18T06:18:43.291Z,93.23
2022-12-18T06:21:11.067Z,93.40
2022-12-18T06:23:39.297Z,93.65
2022-12-18T06:26:08.346Z,94.32
2022-12-18T06:28:37.445Z,94.05
2022-12-18T06:31:06.410Z,94.06
2022-12-18T06:33:34.848Z,94.14
2022-12-18T06:36:03.964Z,94.77
2022-12-18T06:38:32.891Z,95.05
2022-12-18T06:41:00.652Z,94.00
2022-12-18T06:43:28.423Z,94.01
2022-12-18T06:46:01.862Z,92.84
2022-12-18T06:48:30.063Z,93.84
2022-12-18T06:50:57.856Z,93.55
2022-12-18T06:53:28.493Z,92.77
2022-12-18T06:56:10.850Z,92.80
2022-12-18T06:58:38.917Z,93.81
2022-12-18T07:01:11.111Z,93.17
2022-12-18T07:03:39.761Z,92.91
2022-12-18T07:06:08.768Z,92.87
2022-12-18T07:08:36.509Z,93.92
2022-12-18T07:11:06.105Z,93.81
2022-12-18T07:13:33.908Z,93.31
2022-12-18T07:16:18.314Z,92.93
2022-12-18T07:18:50.340Z,92.96
2022-12-18T07:21:20.197Z,93.54
2022-12-18T07:23:49.204Z,92.98
2022-12-18T07:26:19.278Z,93.00
2022-12-18T07:28:47.183Z,92.95
2022-12-18T07:31:18.917Z,92.94
2022-12-18T07:33:47.771Z,92.75
2022-12-18T07:36:16.377Z,92.73
2022-12-18T07:38:44.202Z,93.17
2022-12-18T07:41:14.337Z,92.20
2022-12-18T07:43:43.685Z,92.10
2022-12-18T07:46:12.339Z,92.22
2022-12-18T07:48:42.883Z,93.07
2022-12-18T07:51:15.933Z,92.94
2022-12-18T07:53:44.874Z,92.57
2022-12-18T07:56:27.035Z,92.98
2022-12-18T07:58:56.311Z,92.23
2022-12-18T08:01:24.185Z,92.55
2022-12-18T08:03:53.344Z,92.04
2022-12-18T08:06:24.259Z,93.79
2022-12-18T08:08:53.944Z,92.90
2022-12-18T08:11:21.789Z,92.88
2022-12-18T08:13:49.764Z,92.42
2022-12-18T08:16:18.043Z,92.67
2022-12-18T08:18:46.005Z,92.61
2022-12-18T08:21:17.971Z,91.58
2022-12-18T08:23:46.244Z,93.59
2022-12-18T08:26:15.306Z,93.38
2022-12-18T08:28:43.733Z,93.13
2022-12-18T08:31:11.748Z,92.70
2022-12-18T08:33:41.052Z,92.75
2022-12-18T08:36:11.796Z,92.51
2022-12-18T08:38:40.998Z,92.16
2022-12-18T08:41:11.681Z,92.55
2022-12-18T08:43:57.222Z,92.42
2022-12-18T08:46:27.729Z,92.66
2022-12-18T08:48:56.591Z,92.91
2022-12-18T08:51:24.811Z,93.00
2022-12-18T08:53:54.531Z,92.79
2022-12-18T08:56:22.313Z,94.09
2022-12-18T08:58:52.912Z,93.16
2022-12-18T09:01:21.165Z,93.15
2022-12-18T09:03:49.050Z,93.14
2022-12-18T09:06:17.908Z,92.83
2022-12-18T09:08:45.763Z,92.93
2022-12-18T09:11:22.365Z,93.28
2022-12-18T09:13:50.245Z,93.47
2022-12-18T09:16:19.044Z,93.20
2022-12-18T09:18:46.948Z,92.94
2022-12-18T09:21:17.564Z,93.25
2022-12-18T09:23:45.990Z,92.83
2022-12-18T09:26:13.679Z,93.31
2022-12-18T09:28:43.367Z,93.93
2022-12-18T09:31:13.521Z,93.32
2022-12-18T09:33:41.243Z,93.34
2022-12-18T09:36:16.923Z,93.40
2022-12-18T09:38:44.668Z,93.49
2022-12-18T09:41:29.213Z,94.46
2022-12-18T09:44:03.136Z,93.37
2022-12-18T09:46:36.602Z,93.01
2022-12-18T09:49:13.166Z,92.42
2022-12-18T09:51:47.169Z,92.20
2022-12-18T09:54:20.847Z,91.75
2022-12-18T09:56:49.025Z,91.88
2022-12-18T09:59:25.404Z,91.81
2022-12-18T10:01:53.690Z,91.68
2022-12-18T10:04:21.660Z,91.09
2022-12-18T10:06:58.256Z,91.17
2022-12-18T10:09:33.041Z,91.22
2022-12-18T10:12:09.533Z,90.52
2022-12-18T10:14:48.963Z,90.64
2022-12-18T10:17:28.462Z,90.25
2022-12-18T10:20:01.463Z,89.46
2022-12-18T10:22:45.870Z,91.09
2022-12-18T10:25:24.734Z,88.64
2022-12-18T10:27:55.604Z,88.83
2022-12-18T10:30:26.454Z,89.32
2022-12-18T10:32:55.082Z,88.34
2022-12-18T10:35:25.428Z,88.07
2022-12-18T10:38:07.897Z,88.29
2022-12-18T10:40:50.755Z,88.13
2022-12-18T10:43:23.953Z,88.12
2022-12-18T10:46:06.661Z,86.99
2022-12-18T10:48:36.207Z,86.70
2022-12-18T10:51:13.621Z,87.48
2022-12-18T10:53:44.429Z,87.68
2022-12-18T10:56:12.738Z,87.28
2022-12-18T10:58:41.313Z,87.95
2022-12-18T11:01:13.873Z,87.54
2022-12-18T11:03:43.477Z,87.13
2022-12-18T11:06:13.100Z,87.02
2022-12-18T11:08:43.121Z,87.21
2022-12-18T11:11:21.787Z,86.12
2022-12-18T11:14:01.391Z,84.61
2022-12-18T11:16:33.044Z,85.29
2022-12-18T11:19:21.169Z,85.24
2022-12-18T11:21:50.410Z,84.27
2022-12-18T11:24:25.062Z,84.64
2022-12-18T11:26:59.314Z,83.75
2022-12-18T11:29:34.637Z,83.84
2022-12-18T11:32:33.522Z,84.88
2022-12-18T11:35:10.046Z,83.44
2022-12-18T11:37:38.330Z,83.90
2022-12-18T11:40:15.513Z,84.35
2022-12-18T11:42:50.215Z,83.59
2022-12-18T11:45:27.910Z,83.99
2022-12-18T11:48:01.193Z,83.84
2022-12-18T11:50:35.150Z,82.93
2022-12-18T11:53:06.186Z,83.86
2022-12-18T11:55:53.173Z,84.56
2022-12-18T11:58:34.082Z,83.43
2022-12-18T12:01:15.896Z,83.61
2022-12-18T12:04:03.710Z,84.00
2022-12-18T12:06:40.645Z,84.43
2022-12-18T12:09:19.738Z,84.86
2022-12-18T12:11:57.865Z,84.13
2022-12-18T12:14:40.022Z,83.73
2022-12-18T12:17:14.039Z,85.65
2022-12-18T12:19:52.696Z,85.03
2022-12-18T12:22:29.898Z,85.20
2022-12-18T12:25:15.189Z,84.33
2022-12-18T12:27:51.951Z,84.63
2022-12-18T12:30:23.243Z,84.91
2022-12-18T12:33:05.485Z,84.57
2022-12-18T12:35:46.249Z,84.81
2022-12-18T12:38:18.247Z,85.29
2022-12-18T12:40:53.956Z,84.81
2022-12-18T12:43:30.482Z,84.81
2022-12-18T12:46:01.210Z,84.42
2022-12-18T12:48:43.545Z,83.98
2022-12-18T12:51:19.916Z,84.05
2022-12-18T12:53:49.813Z,84.54
2022-12-18T12:56:19.946Z,84.75
2022-12-18T12:58:59.165Z,84.47
2022-12-18T13:01:34.656Z,84.40
2022-12-18T13:04:14.932Z,84.42
2022-12-18T13:06:54.433Z,83.30
2022-12-18T13:09:22.291Z,84.46
2022-12-18T13:12:08.308Z,84.70
2022-12-18T13:14:39.085Z,84.29
2022-12-18T13:17:34.089Z,84.30
2022-12-18T13:20:09.696Z,84.20
2022-12-18T13:22:43.038Z,84.82
2022-12-18T13:25:34.633Z,84.20
2022-12-18T13:28:10.098Z,84.35
2022-12-18T13:30:57.937Z,84.53
2022-12-18T13:34:16.504Z,84.25
2022-12-18T13:36:34.748Z,84.53
2022-12-18T13:39:34.301Z,84.42
2022-12-18T13:42:55.845Z,84.40
2022-12-18T13:45:50.255Z,84.18
2022-12-18T13:48:21.211Z,84.61
2022-12-18T13:50:55.053Z,83.82
2022-12-18T13:53:26.709Z,83.87
2022-12-18T13:55:56.656Z,83.98
2022-12-18T13:58:24.498Z,83.69
2022-12-18T14:00:52.508Z,83.00
2022-12-18T14:03:24.414Z,83.39
2022-12-18T14:06:00.630Z,84.03
2022-12-18T14:08:35.143Z,83.32
2022-12-18T14:11:06.434Z,83.88
2022-12-18T14:13:38.598Z,83.00
2022-12-18T14:16:09.408Z,84.41
2022-12-18T14:18:45.897Z,84.15
2022-12-18T14:21:23.952Z,84.42
2022-12-18T14:24:04.601Z,84.79
2022-12-18T14:26:34.669Z,84.07
2022-12-18T14:29:19.479Z,84.08
2022-12-18T14:31:48.081Z,83.96
2022-12-18T14:34:18.104Z,84.44
2022-12-18T14:36:54.931Z,84.04
2022-12-18T14:39:23.131Z,84.24
2022-12-18T14:41:53.818Z,84.28
2022-12-18T14:44:22.336Z,84.14
2022-12-18T14:46:52.169Z,83.76
2022-12-18T14:49:25.170Z,84.18
2022-12-18T14:51:54.729Z,84.99
2022-12-18T14:54:25.395Z,84.27
2022-12-18T14:57:01.564Z,84.04
2022-12-18T14:59:30.576Z,85.10
2022-12-18T15:02:05.377Z,84.41
2022-12-18T15:04:36.221Z,84.18
2022-12-18T15:07:06.700Z,83.36
2022-12-18T15:09:34.489Z,84.35
2022-12-18T15:12:04.297Z,83.82
2022-12-18T15:14:42.316Z,84.73
2022-12-18T15:17:19.587Z,84.60
2022-12-18T15:19:48.757Z,84.91
2022-12-18T15:22:27.904Z,84.60
2022-12-18T15:24:56.846Z,84.20
2022-12-18T15:27:28.888Z,84.30
2022-12-18T15:30:19.294Z,83.16
2022-12-18T15:32:49.909Z,83.81
2022-12-18T15:35:20.994Z,84.66
2022-12-18T15:37:49.405Z,85.00
2022-12-18T15:40:19.313Z,84.37
2022-12-18T15:43:07.981Z,84.78
2022-12-18T15:45:35.891Z,84.67
2022-12-18T15:48:03.678Z,84.15
2022-12-18T15:50:31.852Z,85.17
2022-12-18T15:52:59.792Z,84.79
2022-12-18T15:55:44.820Z,85.58
2022-12-18T15:58:13.894Z,86.43
2022-12-18T16:00:43.016Z,86.00
2022-12-18T16:03:12.019Z,85.69
2022-12-18T16:05:39.846Z,86.36
2022-12-18T16:08:07.551Z,86.12
2022-12-18T16:10:35.511Z,86.07
2022-12-18T16:13:03.221Z,86.38
2022-12-18T16:15:32.361Z,86.07
2022-12-18T16:18:00.093Z,87.42
2022-12-18T16:20:27.852Z,87.19
2022-12-18T16:22:55.954Z,87.63
2022-12-18T16:25:25.616Z,87.54
2022-12-18T16:27:55.909Z,87.82
2022-12-18T16:30:26.457Z,89.19
2022-12-18T16:32:55.840Z,89.55
2022-12-18T16:35:25.264Z,89.27
2022-12-18T16:37:52.954Z,90.03
2022-12-18T16:40:20.807Z,89.72
2022-12-18T16:42:49.873Z,89.47
2022-12-18T16:45:19.356Z,89.85
2022-12-18T16:47:47.297Z,90.01
2022-12-18T16:50:16.424Z,89.88
2022-12-18T16:52:44.154Z,90.27
2022-12-18T16:55:11.922Z,90.21
2022-12-18T16:57:39.649Z,90.64
2022-12-18T17:00:09.007Z,90.45
2022-12-18T17:02:37.567Z,90.15
2022-12-18T17:05:06.247Z,90.66
2022-12-18T17:07:35.492Z,90.71
2022-12-18T17:10:04.785Z,90.73
2022-12-18T17:12:32.505Z,89.88
2022-12-18T17:15:00.456Z,90.32
2022-12-18T17:17:28.183Z,90.50
2022-12-18T17:19:55.853Z,90.91
2022-12-18T17:22:24.090Z,90.42
2022-12-18T17:24:53.267Z,90.76
2022-12-18T17:27:21.044Z,91.45
2022-12-18T17:29:49.243Z,91.18
2022-12-18T17:32:17.420Z,90.95
2022-12-18T17:34:45.345Z,90.99
2022-12-18T17:37:13.279Z,91.33
2022-12-18T17:39:41.195Z,91.32
2022-12-18T17:42:14.852Z,90.78
2022-12-18T17:44:43.589Z,90.79
2022-12-18T17:47:12.874Z,91.04
2022-12-18T17:49:40.823Z,91.20
2022-12-18T17:52:08.600Z,91.36
2022-12-18T17:54:39.472Z,91.47
2022-12-18T17:57:07.371Z,91.93
2022-12-18T17:59:36.463Z,91.60
2022-12-18T18:02:04.421Z,91.62
2022-12-18T18:04:32.611Z,91.46
2022-12-18T18:07:00.366Z,91.17
2022-12-18T18:09:28.522Z,91.62
2022-12-18T18:12:14.518Z,91.48
2022-12-18T18:14:43.636Z,90.97
2022-12-18T18:17:11.463Z,91.60
2022-12-18T18:19:39.214Z,90.47
2022-12-18T18:22:08.604Z,90.96
2022-12-18T18:24:36.473Z,90.69
2022-12-18T18:27:04.309Z,90.39
2022-12-18T18:29:32.267Z,90.24
2022-12-18T18:32:01.724Z,90.69
2022-12-18T18:34:31.951Z,90.13
2022-12-18T18:37:01.474Z,90.66
2022-12-18T18:39:29.738Z,90.98
2022-12-18T18:41:57.503Z,91.28
2022-12-18T18:44:26.272Z,91.98
2022-12-18T18:46:55.224Z,91.69
2022-12-18T18:49:27.692Z,91.80
2022-12-18T18:51:57.634Z,92.02
2022-12-18T18:54:25.441Z,92.07
2022-12-18T18:57:19.521Z,92.00
2022-12-18T18:59:40.950Z,91.17
2022-12-18T19:02:12.571Z,91.28
2022-12-18T19:04:46.167Z,91.03
2022-12-18T19:07:15.081Z,90.84
2022-12-18T19:09:54.083Z,90.52
2022-12-18T19:15:03.637Z,91.45
2022-12-18T19:17:31.652Z,91.27
2022-12-18T19:20:01.097Z,91.62
2022-12-18T19:22:28.837Z,90.89
2022-12-18T19:24:56.608Z,90.74
2022-12-18T19:27:24.452Z,90.61
2022-12-18T19:29:52.182Z,91.40
2022-12-18T19:32:19.980Z,90.68
2022-12-18T19:34:48.069Z,91.06
2022-12-18T19:37:17.785Z,91.13
2022-12-18T19:39:45.583Z,90.55
2022-12-18T19:42:13.510Z,90.56
2022-12-18T19:44:41.777Z,90.42
2022-12-18T19:47:09.459Z,90.83
2022-12-18T19:49:38.572Z,91.16
2022-12-18T19:52:06.528Z,90.19
2022-12-18T19:54:35.668Z,90.18
2022-12-18T19:57:05.643Z,91.47
2022-12-18T19:59:33.407Z,91.24
2022-12-18T20:02:01.328Z,91.63
2022-12-18T20:04:29.240Z,91.71
2022-12-18T20:06:57.674Z,91.19
2022-12-18T20:09:25.842Z,92.01
2022-12-18T20:11:55.389Z,92.08
2022-12-18T20:14:23.878Z,90.74
2022-12-18T20:16:53.389Z,91.60
2022-12-18T20:19:21.507Z,90.78
2022-12-18T20:21:49.454Z,91.94
2022-12-18T20:24:17.166Z,91.64
2022-12-18T20:26:44.912Z,91.81
2022-12-18T20:29:13.978Z,91.46
2022-12-18T20:31:42.039Z,92.28
2022-12-18T20:34:09.885Z,92.53
2022-12-18T20:36:38.635Z,91.40
2022-12-18T20:39:10.052Z,92.70
2022-12-18T20:41:40.197Z,92.55
2022-12-18T20:44:21.934Z,91.91
2022-12-18T20:46:53.782Z,93.34
2022-12-18T20:49:21.516Z,93.43
2022-12-18T20:51:52.360Z,93.26
2022-12-18T20:54:20.205Z,93.09
2022-12-18T20:56:47.986Z,92.65
2022-12-18T20:59:15.693Z,93.30
2022-12-18T21:01:48.536Z,93.75
2022-12-18T21:04:18.864Z,94.08
2022-12-18T21:06:51.419Z,93.46
2022-12-18T21:09:20.809Z,93.33
2022-12-18T21:12:06.145Z,94.38
2022-12-18T21:14:33.979Z,93.74
2022-12-18T21:17:02.328Z,94.80
2022-12-18T21:19:31.517Z,93.83
2022-12-18T21:21:59.574Z,93.90
2022-12-18T21:24:28.796Z,94.28
2022-12-18T21:27:00.543Z,94.05
2022-12-18T21:29:28.863Z,94.60
2022-12-18T21:31:56.917Z,94.27
2022-12-18T21:34:26.675Z,95.10
2022-12-18T21:36:57.288Z,95.87
2022-12-18T21:39:26.196Z,96.95
2022-12-18T21:42:11.457Z,97.29
2022-12-18T21:44:42.163Z,98.54
2022-12-18T21:47:21.982Z,98.89
2022-12-18T21:49:51.625Z,100.00
2022-12-18T21:52:28.334Z,99.42
2022-12-18T21:55:06.287Z,100.00
2022-12-18T21:57:36.646Z,100.00
2022-12-18T22:00:05.773Z,100.00
2022-12-18T22:02:40.087Z,100.00
2022-12-18T22:05:08.715Z,100.00
2022-12-18T22:07:37.982Z,100.00
2022-12-18T22:10:06.307Z,100.00
2022-12-18T22:12:42.898Z,100.00
2022-12-18T22:15:17.629Z,100.00
2022-12-18T22:18:00.259Z,100.00
2022-12-18T22:20:29.855Z,100.00
2022-12-18T22:22:59.546Z,100.00
2022-12-18T22:25:32.143Z,100.00
2022-12-18T22:28:19.358Z,100.00
2022-12-18T22:30:47.160Z,100.00
2022-12-18T22:33:14.902Z,100.00
2022-12-18T22:35:42.830Z,100.00
2022-12-18T22:38:11.879Z,100.00
2022-12-18T22:40:39.582Z,100.00
2022-12-18T22:43:07.270Z,100.00
2022-12-18T22:45:35.740Z,100.00
2022-12-18T22:48:06.760Z,100.00
2022-12-18T22:50:34.511Z,100.00
2022-12-18T22:53:02.269Z,100.00
2022-12-18T22:55:31.354Z,100.00
2022-12-18T22:57:59.084Z,100.00
2022-12-18T23:00:26.864Z,100.00
2022-12-18T23:03:00.396Z,100.00
2022-12-18T23:05:30.668Z,100.00
2022-12-18T23:07:59.265Z,100.00
2022-12-18T23:10:27.387Z,100.00
2022-12-18T23:12:56.536Z,100.00
2022-12-18T23:15:28.375Z,100.00
2022-12-18T23:17:57.974Z,100.00
2022-12-18T23:20:25.971Z,100.00
2022-12-18T23:22:53.814Z,100.00
2022-12-18T23:25:21.529Z,100.00
2022-12-18T23:27:49.345Z,100.00
2022-12-18T23:30:18.674Z,100.00
2022-12-18T23:32:46.492Z,100.00
2022-12-18T23:35:15.985Z,100.00
2022-12-18T23:38:00.659Z,100.00
2022-12-18T23:40:29.768Z,100.00
2022-12-18T23:42:57.614Z,100.00
2022-12-18T23:45:26.738Z,100.00
2022-12-18T23:47:54.554Z,100.00
2022-12-18T23:50:27.707Z,100.00
2022-12-18T23:52:56.965Z,100.00
2022-12-18T23:55:33.060Z,100.00
2022-12-18T23:58:00.757Z,100.00
